Time;durP1;ratioP1;P1;durP2;ratioP2;P2;SDS_P1;SDS_P2;PMS_P1;PMS_P2;Temp;Humidity;BMP_temperature;BMP_pressure;BME280_temperature;BME280_humidity;BME280_pressure;Samples;Min_cycle;Max_cycle;Signal;HPM_P1;HPM_P2
2021/11/17 02:27:20;;;;;;;;;1.00;0.00;;;;;9.66;75.13;101804.59;5084895;28;45376;-81
2021/11/17 02:30:06;;;;;;;;;5.00;3.75;;;;;9.62;75.13;101793.25;5088015;28;45382;-80
2021/11/17 02:32:43;;;;;;;;;1.75;1.75;;;;;9.56;75.50;101799.13;5063069;28;47413;-81
2021/11/17 02:35:26;;;;;;;;;5.75;3.00;;;;;9.41;75.35;101778.78;5048243;28;45288;-79
2021/11/17 02:38:16;;;;;;;;;5.00;3.25;;;;;9.44;75.50;101778.88;5015291;28;45317;-80
2021/11/17 02:40:50;;;;;;;;;2.50;1.00;;;;;9.41;75.79;101765.78;5067046;28;45596;-80
2021/11/17 02:43:19;;;;;;;;;3.75;3.75;;;;;9.46;75.82;101763.28;5066466;28;45467;-80
2021/11/17 02:46:12;;;;;;;;;6.25;2.75;;;;;9.48;75.75;101772.91;5065102;28;45332;-80
2021/11/17 02:48:40;;;;;;;;;6.25;1.25;;;;;9.43;75.41;101765.81;5045663;28;45352;-80
2021/11/17 02:51:17;;;;;;;;;3.00;3.00;;;;;9.53;75.70;101795.56;5065151;28;45193;-80
2021/11/17 02:53:54;;;;;;;;;1.75;1.75;;;;;9.54;75.35;101800.81;5046697;28;47222;-80
2021/11/17 02:56:38;;;;;;;;;5.00;3.00;;;;;9.55;75.65;101802.56;5046151;28;45291;-80
2021/11/17 02:59:28;;;;;;;;;2.00;2.00;;;;;9.35;75.24;101773.38;5046834;28;45490;-80
2021/11/17 03:02:12;;;;;;;;;5.50;3.75;;;;;9.60;75.53;101807.91;5030098;28;45566;-80
2021/11/17 03:05:05;;;;;;;;;2.50;1.50;;;;;9.65;75.56;101805.44;5045985;28;48543;-80
2021/11/17 03:07:49;;;;;;;;;3.00;3.00;;;;;9.67;75.40;101801.16;5046348;28;45354;-80
2021/11/17 03:10:43;;;;;;;;;4.00;3.00;;;;;9.40;75.21;101768.31;5045988;28;45331;-80
2021/11/17 03:13:33;;;;;;;;;2.00;2.00;;;;;9.59;75.42;101826.94;5045761;28;45245;-80
2021/11/17 03:16:20;;;;;;;;;3.75;3.00;;;;;9.49;75.83;101805.84;5064179;28;45545;-80
2021/11/17 03:19:34;;;;;;;;;1.00;1.00;;;;;9.32;75.54;101774.19;5047669;28;45232;-80
2021/11/17 03:22:34;;;;;;;;;7.50;3.75;;;;;9.19;75.35;101757.31;4981764;28;45704;-81
2021/11/17 03:25:26;;;;;;;;;4.25;3.25;;;;;9.65;75.31;101836.66;4950785;28;45716;-80
2021/11/17 03:27:58;;;;;;;;;3.25;3.25;;;;;9.63;75.25;101852.19;5040940;28;46637;-81
2021/11/17 03:30:42;;;;;;;;;4.00;2.25;;;;;9.59;75.41;101856.41;5063320;28;45508;-80
2021/11/17 03:33:32;;;;;;;;;2.00;2.00;;;;;9.62;75.34;101856.50;5057007;28;45459;-80
2021/11/17 03:36:36;;;;;;;;;4.75;4.00;;;;;9.58;75.45;101856.34;5083798;28;45215;-80
2021/11/17 03:39:37;;;;;;;;;4.00;4.00;;;;;9.46;75.37;101825.66;5080917;28;46068;-80
2021/11/17 03:42:24;;;;;;;;;2.75;2.50;;;;;9.54;75.46;101849.31;5056467;28;45169;-80
2021/11/17 03:45:07;;;;;;;;;3.50;1.50;;;;;9.48;75.57;101843.09;5064874;28;45374;-80
2021/11/17 03:47:42;;;;;;;;;2.75;1.00;;;;;9.57;75.70;101863.28;5050223;28;45336;-80
2021/11/17 03:50:17;;;;;;;;;4.00;2.00;;;;;9.61;75.57;101862.53;5083104;28;45552;-80
2021/11/17 03:52:45;;;;;;;;;2.75;2.75;;;;;9.65;75.70;101870.44;5065275;28;45440;-80
2021/11/17 03:55:32;;;;;;;;;3.25;3.00;;;;;9.42;75.37;101831.59;5065161;28;45304;-80
2021/11/17 03:58:06;;;;;;;;;3.50;3.50;;;;;9.65;75.60;101868.75;5081725;28;45381;-80
2021/11/17 04:00:31;;;;;;;;;6.00;2.25;;;;;9.67;75.61;101872.25;5062125;28;47701;-80
2021/11/17 04:03:25;;;;;;;;;4.00;2.25;;;;;9.71;75.18;101868.91;5082781;28;45281;-80
2021/11/17 04:06:23;;;;;;;;;3.25;3.25;;;;;9.52;75.07;101841.47;5083167;28;45372;-80
2021/11/17 04:08:57;;;;;;;;;2.00;0.00;;;;;9.77;75.25;101878.59;5067008;28;45366;-80
2021/11/17 04:11:56;;;;;;;;;1.75;1.75;;;;;9.78;75.01;101872.59;5083101;28;46216;-80
2021/11/17 04:15:00;;;;;;;;;4.00;2.25;;;;;9.60;75.08;101842.59;5041367;28;45830;-80
2021/11/17 04:17:51;;;;;;;;;2.75;1.00;;;;;9.76;75.15;101874.25;5067463;28;45476;-80
2021/11/17 04:20:28;;;;;;;;;3.50;3.50;;;;;9.80;75.10;101889.09;5066729;28;45394;-80
2021/11/17 04:23:13;;;;;;;;;2.25;2.25;;;;;9.80;75.08;101894.31;5064509;28;47133;-80
2021/11/17 04:25:50;;;;;;;;;2.25;1.75;;;;;9.80;75.17;101898.63;5086170;28;45314;-80
2021/11/17 04:28:43;;;;;;;;;2.00;2.00;;;;;9.79;75.02;101905.53;5064438;28;45204;-80
2021/11/17 04:31:34;;;;;;;;;1.00;1.00;;;;;9.79;75.07;101904.66;5065191;28;45595;-81
2021/11/17 04:33:59;;;;;;;;;3.00;3.00;;;;;9.79;75.13;101908.16;5071665;28;46781;-80
2021/11/17 04:36:33;;;;;;;;;4.00;2.00;;;;;9.76;75.24;101902.84;5086242;28;45456;-80
2021/11/17 04:39:11;;;;;;;;;4.50;2.25;;;;;9.71;75.68;101901.84;5068426;28;45367;-80
2021/11/17 04:42:02;;;;;;;;;2.00;2.00;;;;;9.69;75.78;101914.78;5068479;28;45552;-80
2021/11/17 04:44:57;;;;;;;;;1.25;1.25;;;;;9.69;76.22;101914.78;5068180;28;47582;-81
2021/11/17 04:47:53;;;;;;;;;2.75;2.75;;;;;9.68;76.28;101910.41;5067601;28;45398;-81
2021/11/17 04:50:26;;;;;;;;;2.50;1.00;;;;;9.63;75.54;101896.41;5087452;28;45465;-80
2021/11/17 04:53:03;;;;;;;;;1.25;1.25;;;;;9.72;76.26;101909.69;5087397;28;45308;-80
2021/11/17 04:55:58;;;;;;;;;3.25;3.25;;;;;9.71;76.40;101915.69;5065651;28;48003;-80
2021/11/17 04:58:31;;;;;;;;;2.00;2.00;;;;;9.68;76.58;101909.53;5012348;28;45498;-80
2021/11/17 05:01:00;;;;;;;;;6.50;4.75;;;;;9.68;76.86;101906.94;5066543;28;45655;-81
2021/11/17 05:03:43;;;;;;;;;3.00;3.00;;;;;9.70;76.81;101903.53;5084419;28;45335;-80
2021/11/17 05:06:21;;;;;;;;;1.25;1.00;;;;;8.89;76.64;101775.41;5084932;28;45500;-80
2021/11/17 05:09:07;;;;;;;;;5.50;4.00;;;;;9.70;76.88;101903.53;5085518;28;45298;-81
2021/11/17 05:12:04;;;;;;;;;1.00;1.00;;;;;9.34;77.05;101841.78;5086703;28;45486;-80
2021/11/17 05:14:57;;;;;;;;;3.25;3.25;;;;;9.68;77.14;101884.41;5070074;28;45256;-81
2021/11/17 05:18:00;;;;;;;;;5.50;3.25;;;;;9.79;77.13;101894.25;5050202;28;46621;-82
2021/11/17 05:20:45;;;;;;;;;2.25;2.25;;;;;9.79;77.01;101889.94;5083156;28;45283;-82
2021/11/17 05:23:38;;;;;;;;;2.00;1.00;;;;;9.49;76.83;101837.06;5063257;28;45662;-81
2021/11/17 05:26:24;;;;;;;;;6.25;5.50;;;;;9.93;76.99;101905.09;5050539;28;45417;-82
2021/11/17 05:29:01;;;;;;;;;2.00;2.00;;;;;9.96;77.10;101898.25;5022984;28;45528;-81
2021/11/17 05:32:04;;;;;;;;;0.25;0.25;;;;;10.00;76.96;101901.84;5073542;28;45217;-81
2021/11/17 05:34:48;;;;;;;;;5.00;3.00;;;;;9.89;77.06;101867.69;5082226;28;45323;-82
2021/11/17 05:37:56;;;;;;;;;2.00;2.00;;;;;10.02;76.79;101894.97;5064692;28;45457;-81
2021/11/17 05:40:41;;;;;;;;;2.50;2.00;;;;;9.79;76.72;101856.13;5083718;28;46314;-81
2021/11/17 05:43:06;;;;;;;;;3.25;3.25;;;;;9.99;76.83;101892.28;5068351;28;45268;-82
2021/11/17 05:46:12;;;;;;;;;2.50;2.50;;;;;9.97;77.03;101888.72;5086234;28;45228;-86
2021/11/17 05:48:56;;;;;;;;;1.00;1.00;;;;;10.01;77.00;101887.97;5088216;28;45220;-82
2021/11/17 05:51:31;;;;;;;;;4.00;0.50;;;;;10.00;77.28;101881.03;5066585;28;45435;-83
2021/11/17 05:54:24;;;;;;;;;1.50;1.50;;;;;9.21;76.88;101757.34;5084405;28;45423;-85
2021/11/17 05:57:07;;;;;;;;;3.50;1.00;;;;;9.91;76.91;101879.03;5073111;28;45410;-83
2021/11/17 06:00:01;;;;;;;;;3.00;3.00;;;;;9.92;77.32;101882.53;5085307;28;45260;-83
2021/11/17 06:02:50;;;;;;;;;2.50;1.50;;;;;10.01;77.34;101878.47;5046281;28;46506;-80
2021/11/17 06:05:15;;;;;;;;;3.00;2.00;;;;;10.03;77.00;101873.31;5083720;28;45348;-79
2021/11/17 06:07:41;;;;;;;;;1.00;1.00;;;;;10.02;77.33;101869.81;5083469;28;45485;-80
2021/11/17 06:10:11;;;;;;;;;4.50;1.50;;;;;10.08;77.27;101879.50;5083272;28;45240;-83
2021/11/17 06:12:37;;;;;;;;;2.50;2.50;;;;;9.93;77.35;101850.47;5082386;28;46990;-82
2021/11/17 06:15:05;;;;;;;;;3.00;2.25;;;;;9.55;77.28;101778.31;5084711;28;45472;-81
2021/11/17 06:17:31;;;;;;;;;4.75;3.00;;;;;9.99;77.33;101855.84;5063713;28;45479;-81
2021/11/17 06:19:57;;;;;;;;;1.25;1.00;;;;;10.08;77.42;101863.03;5066603;28;45596;-81
2021/11/17 06:22:26;;;;;;;;;4.00;1.00;;;;;10.01;76.96;101848.97;5079627;28;47717;-81
2021/11/17 06:24:53;;;;;;;;;2.25;2.25;;;;;9.97;77.10;101847.09;5065281;28;45412;-81
2021/11/17 06:27:22;;;;;;;;;4.00;2.25;;;;;10.18;76.84;101871.97;5083936;28;45288;-81
2021/11/17 06:29:50;;;;;;;;;1.75;1.00;;;;;10.13;76.91;101877.03;5083078;28;45636;-79
2021/11/17 06:32:16;;;;;;;;;3.25;2.00;;;;;9.76;77.00;101801.44;5081880;28;48175;-83
2021/11/17 06:34:47;;;;;;;;;3.00;2.00;;;;;10.11;77.07;101874.41;5083963;28;45375;-80
2021/11/17 06:37:19;;;;;;;;;2.00;2.00;;;;;10.04;77.08;101856.00;5073099;28;45252;-80
2021/11/17 06:39:47;;;;;;;;;4.00;1.50;;;;;9.90;77.13;101851.25;5083576;28;45566;-86
2021/11/17 06:42:17;;;;;;;;;1.75;1.50;;;;;10.09;77.32;101888.22;5081617;27;46488;-80
2021/11/17 06:44:44;;;;;;;;;2.00;2.00;;;;;9.70;76.59;101837.66;5079407;28;45957;-80
2021/11/17 06:47:11;;;;;;;;;2.25;1.00;;;;;9.31;77.07;101771.53;5082366;28;45434;-83
2021/11/17 06:49:37;;;;;;;;;4.50;4.00;;;;;10.02;77.21;101900.16;5082333;28;45413;-78
2021/11/17 06:52:04;;;;;;;;;1.75;1.75;;;;;9.84;77.30;101875.38;5081623;28;46368;-81
2021/11/17 06:54:30;;;;;;;;;6.25;3.75;;;;;9.50;77.37;101811.94;5080447;28;45437;-82
2021/11/17 06:56:55;;;;;;;;;3.00;2.00;;;;;9.72;77.56;101860.28;5080792;28;45412;-81
2021/11/17 06:59:21;;;;;;;;;3.00;1.25;;;;;9.76;77.27;101887.25;5082576;28;45618;-82
2021/11/17 07:01:46;;;;;;;;;2.50;2.50;;;;;9.55;77.46;101846.75;5063666;28;47463;-82
2021/11/17 07:04:12;;;;;;;;;5.00;3.00;;;;;9.13;77.28;101783.13;5081817;28;45415;-82
2021/11/17 07:06:37;;;;;;;;;4.75;2.00;;;;;9.73;77.75;101892.34;5082003;28;45783;-83
2021/11/17 07:09:05;;;;;;;;;2.25;1.50;;;;;9.41;77.76;101861.94;5078473;28;45568;-84
2021/11/17 07:11:37;;;;;;;;;2.50;0.75;;;;;9.80;77.77;101919.44;5085504;28;46547;-88
2021/11/17 07:14:08;;;;;;;;;2.75;2.00;;;;;9.96;77.89;101957.22;5078108;28;45497;-87
2021/11/17 07:16:35;;;;;;;;;4.25;2.50;;;;;10.01;77.83;101956.50;5079158;28;45257;-84
2021/11/17 07:19:02;;;;;;;;;1.50;1.50;;;;;9.86;77.40;101919.59;5081731;28;45456;-82
2021/11/17 07:21:28;;;;;;;;;2.00;0.00;;;;;10.04;77.77;101947.91;5078779;28;47558;-83
2021/11/17 07:23:54;;;;;;;;;1.00;1.00;;;;;9.96;77.65;101932.06;5083358;28;45508;-84
2021/11/17 07:26:19;;;;;;;;;3.00;3.00;;;;;10.11;77.59;101959.41;5074395;28;45297;-83
2021/11/17 07:28:44;;;;;;;;;1.00;1.00;;;;;10.21;77.47;101970.97;5067588;28;45346;-83
2021/11/17 07:31:10;;;;;;;;;1.25;1.00;;;;;10.22;77.63;101972.72;5086087;28;45438;-84
2021/11/17 07:33:35;;;;;;;;;4.75;2.00;;;;;10.10;77.32;101978.44;5081807;28;46289;-82
2021/11/17 07:36:01;;;;;;;;;4.00;3.00;;;;;10.16;77.63;101990.78;5077021;28;45517;-80
2021/11/17 07:38:26;;;;;;;;;2.75;2.75;;;;;10.13;77.29;101991.53;5081826;28;45293;-81
2021/11/17 07:40:53;;;;;;;;;2.00;2.00;;;;;10.00;77.94;101967.75;5081243;28;45446;-81
2021/11/17 07:43:21;;;;;;;;;2.00;2.00;;;;;9.87;78.02;101945.66;5063200;28;45274;-82
2021/11/17 07:45:47;;;;;;;;;2.50;2.50;;;;;10.07;77.42;101980.94;5082548;28;45339;-81
2021/11/17 07:48:14;;;;;;;;;1.25;0.25;;;;;10.11;77.66;101986.28;5082838;28;45315;-83
2021/11/17 07:50:42;;;;;;;;;1.25;1.25;;;;;10.07;77.36;101974.03;5081892;28;45497;-82
2021/11/17 07:53:10;;;;;;;;;1.00;1.00;;;;;10.12;77.66;101974.16;5080945;28;45278;-81
2021/11/17 07:55:39;;;;;;;;;3.00;2.00;;;;;10.06;77.67;101950.56;5083797;27;45330;-84
2021/11/17 07:58:06;;;;;;;;;2.00;1.75;;;;;10.30;77.60;101998.97;5079171;28;45414;-84
2021/11/17 08:00:33;;;;;;;;;2.00;2.00;;;;;10.18;77.68;101976.97;5076264;28;47078;-80
2021/11/17 08:03:00;;;;;;;;;4.25;2.25;;;;;10.05;77.44;101952.31;5061818;28;45359;-79
2021/11/17 08:05:26;;;;;;;;;2.00;2.00;;;;;10.25;77.43;101978.91;5078410;28;45513;-80
2021/11/17 08:07:52;;;;;;;;;0.00;0.00;;;;;10.25;77.18;101970.22;5081937;28;45528;-81
2021/11/17 08:10:24;;;;;;;;;1.50;1.50;;;;;10.05;77.39;101948.81;5067245;28;47467;-83
2021/11/17 08:12:50;;;;;;;;;1.50;1.25;;;;;10.13;77.33;101961.22;5081187;28;45488;-82
2021/11/17 08:15:15;;;;;;;;;1.00;1.00;;;;;10.31;77.33;101987.72;5077188;28;45326;-84
2021/11/17 08:17:42;;;;;;;;;3.00;2.50;;;;;10.27;77.14;101986.75;5082304;28;45486;-84
2021/11/17 08:20:12;;;;;;;;;4.00;3.00;;;;;10.01;77.71;101951.31;5065478;28;46729;-84
2021/11/17 08:22:41;;;;;;;;;2.75;2.75;;;;;10.30;77.69;102005.09;5060310;28;45217;-82
2021/11/17 08:25:08;;;;;;;;;3.00;1.00;;;;;10.33;77.62;102004.28;5071248;27;45518;-83
2021/11/17 08:27:34;;;;;;;;;1.00;1.00;;;;;10.20;77.55;101988.28;5057875;28;45446;-82
2021/11/17 08:30:00;;;;;;;;;2.75;2.75;;;;;10.26;77.69;101992.78;5082652;28;45501;-83
2021/11/17 08:32:26;;;;;;;;;5.00;2.75;;;;;10.04;78.09;101965.25;5080059;28;45326;-83
2021/11/17 08:34:51;;;;;;;;;3.00;1.75;;;;;10.31;78.08;102017.25;5082124;28;45322;-82
2021/11/17 08:37:17;;;;;;;;;2.00;2.00;;;;;10.22;77.92;101989.22;5082223;28;45191;-82
2021/11/17 08:39:46;;;;;;;;;4.50;1.75;;;;;10.34;77.81;102004.34;5081877;28;46459;-83
2021/11/17 08:42:12;;;;;;;;;1.00;1.00;;;;;10.42;77.67;102025.41;5080537;28;45532;-82
2021/11/17 08:44:38;;;;;;;;;3.75;2.25;;;;;10.36;77.82;102018.25;5082275;28;45370;-82
2021/11/17 08:47:05;;;;;;;;;6.75;2.25;;;;;10.19;78.04;101967.41;5077584;28;45485;-83
2021/11/17 08:49:31;;;;;;;;;1.25;1.25;;;;;10.52;77.79;102026.56;5077866;28;45880;-85
2021/11/17 08:51:58;;;;;;;;;4.00;2.75;;;;;10.44;77.54;102008.06;5079880;27;45303;-84
2021/11/17 08:54:24;;;;;;;;;2.75;1.00;;;;;10.55;77.69;102025.78;5081576;28;45231;-84
2021/11/17 08:56:50;;;;;;;;;5.25;3.50;;;;;10.52;77.88;102031.78;5079944;28;45484;-85
2021/11/17 08:59:15;;;;;;;;;4.00;3.25;;;;;10.30;77.94;101998.97;5062005;28;46343;-85
2021/11/17 09:01:41;;;;;;;;;3.75;3.00;;;;;10.52;77.80;102031.78;5080260;28;45377;-85
2021/11/17 09:04:06;;;;;;;;;3.75;2.25;;;;;10.37;77.68;101999.22;5082685;28;45407;-84
2021/11/17 09:06:37;;;;;;;;;2.75;2.75;;;;;10.36;77.77;101996.56;5088913;28;45354;-86
2021/11/17 09:09:07;;;;;;;;;1.00;1.00;;;;;10.45;77.88;102006.38;5074861;28;45553;-83
2021/11/17 09:11:34;;;;;;;;;6.00;3.50;;;;;10.59;77.69;102028.50;5079446;28;45919;-83
2021/11/17 09:14:00;;;;;;;;;4.25;1.00;;;;;10.50;77.64;102010.91;5072227;28;45405;-83
2021/11/17 09:16:30;;;;;;;;;2.00;2.00;;;;;10.60;77.82;102035.47;5066149;28;45474;-82
2021/11/17 09:18:57;;;;;;;;;4.25;3.50;;;;;10.63;77.99;102037.31;5055147;28;47164;-83
2021/11/17 09:21:23;;;;;;;;;4.00;3.00;;;;;10.42;77.76;102006.28;5081208;28;45477;-84
2021/11/17 09:23:49;;;;;;;;;3.75;2.00;;;;;10.66;78.05;102042.63;5076058;28;45384;-83
2021/11/17 09:26:17;;;;;;;;;3.75;1.25;;;;;10.42;77.79;101993.25;5070467;28;46860;-83
2021/11/17 09:28:43;;;;;;;;;1.25;1.25;;;;;10.52;77.35;102011.84;5084630;28;45978;-84
2021/11/17 09:31:09;;;;;;;;;1.00;1.00;;;;;10.59;77.66;102023.31;5077586;28;45214;-84
2021/11/17 09:33:37;;;;;;;;;1.25;0.25;;;;;10.58;77.75;102018.94;5042788;28;45227;-84
2021/11/17 09:36:04;;;;;;;;;1.00;1.00;;;;;10.85;77.70;102058.78;5061859;28;45509;-84
2021/11/17 09:38:30;;;;;;;;;2.25;1.25;;;;;10.87;77.41;102054.47;5060367;28;45512;-83
2021/11/17 09:41:26;;;;;;;;;0.75;0.75;;;;;10.93;77.21;102043.38;5051363;28;45409;-83
2021/11/17 09:43:56;;;;;;;;;1.50;1.50;;;;;10.89;77.27;102040.66;5048439;28;45269;-84
2021/11/17 09:46:29;;;;;;;;;1.75;1.50;;;;;11.08;77.03;102067.22;5051841;28;45438;-83
2021/11/17 09:49:02;;;;;;;;;2.25;1.25;;;;;11.15;76.76;102069.16;5065608;28;46995;-85
2021/11/17 09:51:38;;;;;;;;;5.50;2.50;;;;;11.06;76.68;102042.88;5038953;28;45986;-84
2021/11/17 09:54:26;;;;;;;;;1.50;1.50;;;;;11.01;76.62;102034.91;5053762;28;45390;-83
2021/11/17 09:56:59;;;;;;;;;2.00;2.00;;;;;11.18;76.88;102059.69;5063601;28;45371;-82
2021/11/17 09:59:34;;;;;;;;;2.00;2.00;;;;;11.08;76.44;102033.34;5062035;28;45441;-84
2021/11/17 10:02:14;;;;;;;;;1.00;1.00;;;;;11.27;76.73;102079.03;5053390;28;45410;-84
2021/11/17 10:04:46;;;;;;;;;3.00;3.00;;;;;11.23;76.54;102084.13;5066002;28;45452;-87
2021/11/17 10:11:04;;;;;;;;;1.75;1.50;;;;;10.98;76.44;102028.72;5062668;28;45430;-82
2021/11/17 10:13:59;;;;;;;;;1.00;1.00;;;;;11.37;76.51;102085.38;5056986;28;45335;-84
2021/11/17 10:16:25;;;;;;;;;1.00;1.00;;;;;11.43;76.22;102102.94;5056419;28;45715;-83
2021/11/17 10:19:15;;;;;;;;;2.00;2.00;;;;;11.40;76.19;102092.44;5048903;28;45643;-83
2021/11/17 10:21:45;;;;;;;;;2.50;1.00;;;;;11.25;76.21;102062.50;5061041;28;45626;-83
2021/11/17 10:24:17;;;;;;;;;2.75;2.00;;;;;11.04;76.33;102015.88;5042055;28;45275;-83
2021/11/17 10:26:49;;;;;;;;;1.50;0.50;;;;;11.50;76.22;102090.94;5050458;28;45221;-83
2021/11/17 10:29:43;;;;;;;;;3.00;3.00;;;;;11.35;76.35;102068.84;5062139;28;45619;-83
2021/11/17 10:32:20;;;;;;;;;1.25;1.25;;;;;11.46;76.27;102086.50;5031013;28;45580;-83
2021/11/17 10:34:59;;;;;;;;;3.00;2.00;;;;;11.32;76.40;102060.03;5060044;28;45515;-81
2021/11/17 10:37:36;;;;;;;;;3.25;3.00;;;;;11.13;76.74;102015.22;5057592;28;45264;-81
2021/11/17 10:40:29;;;;;;;;;3.00;3.00;;;;;11.60;76.27;102092.94;5062358;28;45355;-82
2021/11/17 10:43:14;;;;;;;;;2.50;2.25;;;;;11.22;76.51;102014.59;5041807;28;46918;-82
2021/11/17 10:45:45;;;;;;;;;1.75;1.75;;;;;11.38;76.19;102039.34;5043426;28;45457;-82
2021/11/17 10:48:41;;;;;;;;;3.00;2.00;;;;;11.58;75.83;102065.06;5051711;28;45462;-83
2021/11/17 10:51:10;;;;;;;;;1.75;1.75;;;;;11.36;75.86;102017.59;5007055;28;45525;-83
2021/11/17 10:53:38;;;;;;;;;1.75;1.75;;;;;11.79;75.74;102069.91;5082038;28;46080;-82
2021/11/17 10:56:10;;;;;;;;;2.00;1.50;;;;;11.93;75.68;102083.31;5075516;28;45587;-82
2021/11/17 10:58:45;;;;;;;;;2.50;2.50;;;;;11.96;75.69;102080.78;5044600;28;45237;-81
2021/11/17 11:01:37;;;;;;;;;1.00;1.00;;;;;11.70;75.43;102022.75;5060472;28;45555;-82
2021/11/17 11:04:35;;;;;;;;;2.00;1.75;;;;;11.89;74.99;102029.31;5056092;28;45411;-83
2021/11/17 11:07:03;;;;;;;;;1.50;1.50;;;;;12.31;74.21;102084.25;5062648;28;45332;-84
2021/11/17 11:09:35;;;;;;;;;1.50;1.50;;;;;12.38;74.90;102063.50;5061692;28;45456;-85
2021/11/17 11:12:02;;;;;;;;;2.25;2.25;;;;;12.53;74.35;102054.28;5060565;28;45386;-87
2021/11/17 11:14:31;;;;;;;;;3.00;1.25;;;;;12.74;74.01;102082.56;5062044;28;45517;-81
2021/11/17 11:17:02;;;;;;;;;1.00;1.00;;;;;12.77;73.61;102080.03;5060472;28;45472;-82
2021/11/17 11:19:30;;;;;;;;;1.25;1.00;;;;;12.48;73.34;102017.59;5056248;28;45575;-83
2021/11/17 11:22:28;;;;;;;;;2.50;1.75;;;;;12.98;73.32;102067.34;5042431;28;45890;-89
2021/11/17 11:24:58;;;;;;;;;2.00;2.00;;;;;12.76;73.21;102009.44;5021598;28;48120;-89
2021/11/17 11:27:33;;;;;;;;;1.25;0.50;;;;;12.60;72.66;101971.69;5062209;28;45554;-85
2021/11/17 11:30:06;;;;;;;;;0.75;0.50;;;;;13.18;72.34;102059.91;5048464;28;45434;-86
2021/11/17 11:32:31;;;;;;;;;0.50;0.50;;;;;13.18;72.21;102052.06;5067505;28;45437;-86
2021/11/17 11:35:01;;;;;;;;;1.25;1.25;;;;;13.14;72.20;102055.50;5062996;28;45617;-87
2021/11/17 11:37:56;;;;;;;;;1.50;0.75;;;;;13.16;72.26;102064.22;5083262;28;45319;-89
2021/11/17 11:40:21;;;;;;;;;1.50;1.00;;;;;13.13;72.28;102062.44;5051300;28;45269;-87
2021/11/17 11:42:59;;;;;;;;;2.50;0.50;;;;;13.07;72.08;102061.47;5084484;28;45290;-87
2021/11/17 11:45:24;;;;;;;;;2.00;2.00;;;;;12.92;72.25;102052.44;5065605;28;46242;-87
2021/11/17 11:47:55;;;;;;;;;0.50;0.50;;;;;12.98;72.05;102064.75;5051883;28;45535;-87
2021/11/17 11:50:30;;;;;;;;;2.75;1.50;;;;;13.01;72.30;102064.81;5067374;28;45419;-86
2021/11/17 11:53:22;;;;;;;;;3.50;2.50;;;;;12.73;72.01;102012.88;5066902;28;45462;-86
2021/11/17 11:55:51;;;;;;;;;3.50;1.25;;;;;13.12;72.22;102063.31;5066924;28;47050;-86
2021/11/17 11:58:20;;;;;;;;;3.50;2.00;;;;;13.17;72.11;102061.63;5078992;28;45223;-86
2021/11/17 12:01:03;;;;;;;;;1.50;1.50;;;;;13.20;71.73;102044.25;5045697;28;45328;-87
2021/11/17 12:03:31;;;;;;;;;1.00;0.00;;;;;13.46;71.56;102059.53;5063016;28;45518;-86
2021/11/17 12:06:10;;;;;;;;;1.75;0.00;;;;;13.54;71.49;102052.75;5050271;28;46759;-88
2021/11/17 12:09:04;;;;;;;;;0.50;0.50;;;;;13.70;71.15;102051.28;5053427;28;45408;-87
2021/11/17 12:11:31;;;;;;;;;0.25;0.25;;;;;13.45;70.50;102006.34;5065694;28;45613;-87
2021/11/17 12:13:59;;;;;;;;;0.50;0.50;;;;;13.73;70.85;102042.59;5085314;28;45414;-86
2021/11/17 12:16:35;;;;;;;;;0.75;0.75;;;;;13.69;70.65;102039.03;5065806;28;47169;-87
2021/11/17 12:19:07;;;;;;;;;0.75;0.00;;;;;13.41;70.46;101991.44;5082012;28;45199;-86
2021/11/17 12:21:41;;;;;;;;;1.00;1.00;;;;;13.76;70.81;102055.72;5063930;28;45294;-86
2021/11/17 12:24:09;;;;;;;;;0.50;0.50;;;;;13.41;70.70;102015.88;5079454;28;45272;-86
2021/11/17 12:26:39;;;;;;;;;0.75;0.75;;;;;13.45;70.52;102002.84;5081428;28;46576;-88
2021/11/17 12:29:14;;;;;;;;;0.75;0.75;;;;;13.74;70.69;102060.94;5047338;28;45379;-84
2021/11/17 12:32:05;;;;;;;;;0.50;0.00;;;;;13.60;70.63;102060.69;5048476;28;45406;-86
2021/11/17 12:34:38;;;;;;;;;0.75;0.75;;;;;13.52;69.71;102067.53;5066389;28;45246;-87
2021/11/17 12:37:21;;;;;;;;;0.50;0.50;;;;;13.10;69.71;102014.44;5084390;28;45417;-86
2021/11/17 12:40:01;;;;;;;;;0.25;0.25;;;;;12.88;69.29;102011.41;5085523;28;44665;-86
2021/11/17 12:42:31;;;;;;;;;0.00;0.00;;;;;13.17;69.87;102064.25;5083367;27;45362;-87
2021/11/17 12:44:58;;;;;;;;;0.00;0.00;;;;;13.10;70.04;102067.59;5091466;27;45409;-87
2021/11/17 12:47:39;;;;;;;;;0.75;0.00;;;;;13.13;70.24;102059.81;5068555;28;47200;-85
2021/11/17 12:50:19;;;;;;;;;0.00;0.00;;;;;13.16;70.13;102065.13;5085470;28;45383;-87
2021/11/17 12:52:49;;;;;;;;;0.00;0.00;;;;;13.10;69.68;102056.25;5086256;28;45295;-86
2021/11/17 12:55:32;;;;;;;;;0.00;0.00;;;;;13.06;69.41;102057.94;5088247;28;45652;-86
2021/11/17 12:58:04;;;;;;;;;0.00;0.00;;;;;12.69;69.76;102013.69;5087322;28;45793;-86
2021/11/17 13:00:30;;;;;;;;;0.00;0.00;;;;;12.93;69.36;102059.44;5065960;28;45345;-88
2021/11/17 13:03:00;;;;;;;;;0.00;0.00;;;;;12.88;69.50;102046.28;5088046;28;45165;-87
2021/11/17 13:05:31;;;;;;;;;0.00;0.00;;;;;12.87;69.78;102056.69;5069286;28;45908;-86
2021/11/17 13:08:00;;;;;;;;;0.25;0.00;;;;;12.84;69.71;102059.25;5068729;28;45631;-86
2021/11/17 13:10:36;;;;;;;;;0.00;0.00;;;;;12.80;70.00;102051.34;5072892;28;45836;-86
2021/11/17 13:13:04;;;;;;;;;0.00;0.00;;;;;12.76;70.24;102059.09;5084556;28;45259;-87
2021/11/17 13:15:39;;;;;;;;;0.00;0.00;;;;;12.71;70.38;102055.50;5089445;28;45918;-87
2021/11/17 13:18:07;;;;;;;;;0.00;0.00;;;;;12.57;70.10;102031.69;5068260;28;47325;-87
2021/11/17 13:20:44;;;;;;;;;0.00;0.00;;;;;12.57;70.61;102037.81;5085930;28;45301;-87
2021/11/17 13:23:09;;;;;;;;;0.00;0.00;;;;;12.72;70.66;102062.50;5070405;28;45405;-83
2021/11/17 13:25:55;;;;;;;;;0.00;0.00;;;;;12.73;70.51;102066.84;5079701;28;45683;-83
2021/11/17 13:28:41;;;;;;;;;0.50;0.00;;;;;12.76;70.79;102073.03;5083786;28;45821;-80
2021/11/17 13:31:22;;;;;;;;;1.00;0.00;;;;;12.77;70.56;102068.72;5061269;28;46210;-83
2021/11/17 13:33:59;;;;;;;;;0.00;0.00;;;;;12.84;70.84;102073.22;5082898;28;45393;-84
2021/11/17 13:36:43;;;;;;;;;0.00;0.00;;;;;12.87;70.42;102073.28;5070539;28;45389;-82
2021/11/17 13:39:10;;;;;;;;;0.25;0.00;;;;;12.89;70.64;102076.78;5087732;28;46262;-83
2021/11/17 13:41:40;;;;;;;;;0.00;0.00;;;;;12.90;70.83;102085.50;5086076;28;45378;-86
2021/11/17 13:44:07;;;;;;;;;0.00;0.00;;;;;12.69;70.73;102051.97;5086455;28;45358;-83
2021/11/17 13:46:33;;;;;;;;;0.00;0.00;;;;;12.77;70.20;102073.94;5085777;28;45544;-83
2021/11/17 13:48:58;;;;;;;;;0.50;0.00;;;;;12.74;70.14;102073.88;5066170;28;47283;-82
2021/11/17 13:51:26;;;;;;;;;0.00;0.00;;;;;12.84;70.38;102086.28;5065908;28;45516;-84
2021/11/17 13:53:53;;;;;;;;;0.00;0.00;;;;;12.28;70.50;101993.66;5083410;28;45339;-84
2021/11/17 13:56:32;;;;;;;;;1.25;0.00;;;;;12.53;69.71;102036.00;5085149;28;45318;-84
2021/11/17 13:58:57;;;;;;;;;4.00;0.75;;;;;12.73;70.15;102059.03;5076542;28;46188;-84
2021/11/17 14:01:24;;;;;;;;;0.00;0.00;;;;;12.96;70.12;102080.41;5082256;28;45327;-82
2021/11/17 14:03:50;;;;;;;;;0.25;0.25;;;;;12.99;70.15;102083.06;5084211;28;45350;-84
2021/11/17 14:06:17;;;;;;;;;0.00;0.00;;;;;12.92;69.90;102065.50;5075385;28;45632;-88
2021/11/17 14:08:44;;;;;;;;;0.00;0.00;;;;;12.95;70.13;102068.19;5078360;28;48387;-83
2021/11/17 14:11:11;;;;;;;;;1.00;0.00;;;;;12.92;70.16;102058.56;5084137;28;45254;-79
2021/11/17 14:13:37;;;;;;;;;0.00;0.00;;;;;12.90;70.39;102049.78;5084095;28;45284;-81
2021/11/17 14:16:03;;;;;;;;;0.25;0.00;;;;;13.16;70.13;102088.66;5084413;28;45513;-86
2021/11/17 14:18:29;;;;;;;;;0.00;0.00;;;;;13.09;70.07;102073.69;5066205;28;48191;-81
2021/11/17 14:20:56;;;;;;;;;0.00;0.00;;;;;13.24;70.22;102086.19;5086625;28;45344;-81
2021/11/17 14:23:22;;;;;;;;;0.00;0.00;;;;;13.09;69.89;102057.13;5088788;27;45333;-84
2021/11/17 14:25:47;;;;;;;;;0.00;0.00;;;;;13.22;69.38;102066.06;5087554;27;45467;-87
2021/11/17 14:28:36;;;;;;;;;0.00;0.00;;;;;13.41;69.57;102093.44;5083352;28;46157;-84
2021/11/17 14:31:33;;;;;;;;;0.00;0.00;;;;;12.77;69.08;101991.19;5081717;28;45477;-83
2021/11/17 14:34:11;;;;;;;;;0.00;0.00;;;;;13.27;69.15;102077.50;5059544;28;45499;-83
2021/11/17 14:36:47;;;;;;;;;0.00;0.00;;;;;13.32;69.11;102088.06;5064413;28;45534;-83